sensor_id;sensor_type;location;lat;lon;timestamp;pressure;altitude;pressure_sealevel;temperature;humidity
39699;BME280;25372;50.582;12.250;2023-04-30T00:07:01;100117.53;;;9.03;76.79
39699;BME280;25372;50.582;12.250;2023-04-30T00:17:23;100126.84;;;9.08;76.98
39699;BME280;25372;50.582;12.250;2023-04-30T00:27:44;100131.97;;;9.10;73.56
39699;BME280;25372;50.582;12.250;2023-04-30T00:38:07;100138.63;;;9.00;73.09
39699;BME280;25372;50.582;12.250;2023-04-30T00:48:28;100146.50;;;8.47;75.75
39699;BME280;25372;50.582;12.250;2023-04-30T00:58:51;100152.28;;;7.99;77.32
39699;BME280;25372;50.582;12.250;2023-04-30T01:09:15;100165.31;;;7.43;80.92
39699;BME280;25372;50.582;12.250;2023-04-30T01:19:41;100171.97;;;7.31;81.99
39699;BME280;25372;50.582;12.250;2023-04-30T01:30:04;100185.88;;;6.90;82.83
39699;BME280;25372;50.582;12.250;2023-04-30T01:40:39;100188.06;;;6.80;82.55
39699;BME280;25372;50.582;12.250;2023-04-30T01:51:07;100203.97;;;6.53;83.70
39699;BME280;25372;50.582;12.250;2023-04-30T02:01:32;100221.03;;;6.18;83.22
39699;BME280;25372;50.582;12.250;2023-04-30T02:11:54;100239.69;;;6.07;83.83
39699;BME280;25372;50.582;12.250;2023-04-30T02:22:16;100271.09;;;5.80;83.34
39699;BME280;25372;50.582;12.250;2023-04-30T02:32:38;100269.09;;;5.86;84.56
39699;BME280;25372;50.582;12.250;2023-04-30T02:42:59;100281.22;;;5.87;82.90
39699;BME280;25372;50.582;12.250;2023-04-30T02:53:21;100295.09;;;5.64;83.54
39699;BME280;25372;50.582;12.250;2023-04-30T03:03:42;100301.75;;;5.48;83.98
39699;BME280;25372;50.582;12.250;2023-04-30T03:14:04;100310.16;;;5.30;83.63
39699;BME280;25372;50.582;12.250;2023-04-30T03:24:25;100326.94;;;5.22;83.79
39699;BME280;25372;50.582;12.250;2023-04-30T03:34:47;100334.41;;;5.06;83.83
39699;BME280;25372;50.582;12.250;2023-04-30T03:45:08;100345.25;;;5.18;83.79
39699;BME280;25372;50.582;12.250;2023-04-30T03:55:31;100358.28;;;5.18;83.22
39699;BME280;25372;50.582;12.250;2023-04-30T04:05:52;100363.59;;;5.15;83.00
39699;BME280;25372;50.582;12.250;2023-04-30T04:16:15;100376.81;;;5.36;81.71
39699;BME280;25372;50.582;12.250;2023-04-30T04:26:36;100380.78;;;5.48;81.56
39699;BME280;25372;50.582;12.250;2023-04-30T04:36:58;100402.59;;;5.44;81.88
39699;BME280;25372;50.582;12.250;2023-04-30T04:47:20;100421.31;;;5.82;80.84
39699;BME280;25372;50.582;12.250;2023-04-30T04:57:43;100430.59;;;5.90;80.19
39699;BME280;25372;50.582;12.250;2023-04-30T05:08:04;100436.72;;;6.15;78.82
39699;BME280;25372;50.582;12.250;2023-04-30T05:18:26;100440.47;;;7.45;75.09
39699;BME280;25372;50.582;12.250;2023-04-30T05:28:47;100455.75;;;8.58;68.66
39699;BME280;25372;50.582;12.250;2023-04-30T05:39:09;100457.34;;;10.58;60.98
39699;BME280;25372;50.582;12.250;2023-04-30T05:49:29;100459.88;;;8.03;71.29
39699;BME280;25372;50.582;12.250;2023-04-30T05:59:51;100470.09;;;7.23;72.46
39699;BME280;25372;50.582;12.250;2023-04-30T06:10:13;100476.59;;;7.99;70.08
39699;BME280;25372;50.582;12.250;2023-04-30T06:20:40;100476.69;;;7.77;71.27
39699;BME280;25372;50.582;12.250;2023-04-30T06:31:00;100484.66;;;8.15;70.31
39699;BME280;25372;50.582;12.250;2023-04-30T06:41:23;100479.38;;;8.36;71.44
39699;BME280;25372;50.582;12.250;2023-04-30T06:51:44;100476.50;;;8.63;70.15
39699;BME280;25372;50.582;12.250;2023-04-30T07:02:06;100479.81;;;8.46;70.19
39699;BME280;25372;50.582;12.250;2023-04-30T07:12:27;100489.81;;;8.77;66.65
39699;BME280;25372;50.582;12.250;2023-04-30T07:22:49;100490.75;;;9.32;67.10
39699;BME280;25372;50.582;12.250;2023-04-30T07:33:10;100489.34;;;9.62;64.92
39699;BME280;25372;50.582;12.250;2023-04-30T07:43:33;100499.16;;;9.76;63.29
39699;BME280;25372;50.582;12.250;2023-04-30T07:53:54;100510.75;;;8.97;65.78
39699;BME280;25372;50.582;12.250;2023-04-30T08:04:16;100506.16;;;10.46;63.51
39699;BME280;25372;50.582;12.250;2023-04-30T08:14:37;100507.06;;;11.11;64.47
39699;BME280;25372;50.582;12.250;2023-04-30T08:24:59;100508.00;;;10.08;63.31
39699;BME280;25372;50.582;12.250;2023-04-30T08:35:21;100513.00;;;10.31;64.84
39699;BME280;25372;50.582;12.250;2023-04-30T08:45:43;100521.94;;;11.58;59.90
39699;BME280;25372;50.582;12.250;2023-04-30T08:56:05;100518.41;;;12.79;53.31
39699;BME280;25372;50.582;12.250;2023-04-30T09:06:27;100512.78;;;13.95;53.56
39699;BME280;25372;50.582;12.250;2023-04-30T09:16:49;100512.72;;;13.41;53.77
39699;BME280;25372;50.582;12.250;2023-04-30T09:27:16;100514.16;;;11.87;55.18
39699;BME280;25372;50.582;12.250;2023-04-30T09:37:37;100515.38;;;11.35;55.73
39699;BME280;25372;50.582;12.250;2023-04-30T09:48:01;100514.19;;;11.09;58.24
39699;BME280;25372;50.582;12.250;2023-04-30T09:58:25;100502.22;;;12.85;52.12
39699;BME280;25372;50.582;12.250;2023-04-30T10:08:52;100506.56;;;10.54;57.88
39699;BME280;25372;50.582;12.250;2023-04-30T10:19:19;100480.66;;;11.75;51.52
39699;BME280;25372;50.582;12.250;2023-04-30T10:29:43;100473.72;;;12.19;55.10
39699;BME280;25372;50.582;12.250;2023-04-30T10:40:05;100480.66;;;11.75;54.35
39699;BME280;25372;50.582;12.250;2023-04-30T10:50:29;100473.91;;;12.74;50.78
39699;BME280;25372;50.582;12.250;2023-04-30T11:00:51;100460.94;;;11.05;55.70
39699;BME280;25372;50.582;12.250;2023-04-30T11:11:21;100462.34;;;11.88;50.55
39699;BME280;25372;50.582;12.250;2023-04-30T11:22:20;100447.22;;;12.37;51.81
39699;BME280;25372;50.582;12.250;2023-04-30T11:32:44;100439.00;;;12.98;50.19
39699;BME280;25372;50.582;12.250;2023-04-30T11:43:05;100454.25;;;12.07;50.68
39699;BME280;25372;50.582;12.250;2023-04-30T11:53:28;100437.81;;;12.89;50.00
39699;BME280;25372;50.582;12.250;2023-04-30T12:03:50;100434.56;;;12.71;49.40
39699;BME280;25372;50.582;12.250;2023-04-30T12:14:12;100428.56;;;12.11;51.01
39699;BME280;25372;50.582;12.250;2023-04-30T12:24:33;100427.38;;;12.87;45.93
39699;BME280;25372;50.582;12.250;2023-04-30T12:35:00;100415.69;;;12.92;47.16
39699;BME280;25372;50.582;12.250;2023-04-30T12:45:46;100409.56;;;12.91;46.07
39699;BME280;25372;50.582;12.250;2023-04-30T12:56:12;100392.13;;;13.03;43.85
39699;BME280;25372;50.582;12.250;2023-04-30T13:06:33;100386.81;;;13.31;48.98
39699;BME280;25372;50.582;12.250;2023-04-30T13:16:56;100379.94;;;13.81;41.62
39699;BME280;25372;50.582;12.250;2023-04-30T13:27:16;100368.31;;;13.84;38.55
39699;BME280;25372;50.582;12.250;2023-04-30T13:37:38;100362.00;;;13.87;40.99
39699;BME280;25372;50.582;12.250;2023-04-30T13:47:59;100357.53;;;14.00;44.04
39699;BME280;25372;50.582;12.250;2023-04-30T13:58:21;100343.34;;;15.83;40.64
39699;BME280;25372;50.582;12.250;2023-04-30T14:08:42;100337.34;;;15.81;37.63
39699;BME280;25372;50.582;12.250;2023-04-30T14:19:04;100326.25;;;16.77;35.04
39699;BME280;25372;50.582;12.250;2023-04-30T14:29:25;100313.38;;;17.05;33.71
39699;BME280;25372;50.582;12.250;2023-04-30T14:39:47;100313.78;;;17.74;32.61
39699;BME280;25372;50.582;12.250;2023-04-30T14:50:08;100311.59;;;17.27;33.86
39699;BME280;25372;50.582;12.250;2023-04-30T15:00:31;100294.09;;;16.70;31.21
39699;BME280;25372;50.582;12.250;2023-04-30T15:10:52;100298.31;;;16.17;33.36
39699;BME280;25372;50.582;12.250;2023-04-30T15:21:14;100301.06;;;14.89;35.54
39699;BME280;25372;50.582;12.250;2023-04-30T15:31:35;100292.84;;;14.80;35.45
39699;BME280;25372;50.582;12.250;2023-04-30T15:41:57;100292.53;;;14.23;33.83
39699;BME280;25372;50.582;12.250;2023-04-30T15:52:18;100293.75;;;15.04;32.52
39699;BME280;25372;50.582;12.250;2023-04-30T16:02:40;100283.94;;;15.06;34.44
39699;BME280;25372;50.582;12.250;2023-04-30T16:13:01;100283.63;;;15.33;34.94
39699;BME280;25372;50.582;12.250;2023-04-30T16:23:23;100268.75;;;15.44;34.00
39699;BME280;25372;50.582;12.250;2023-04-30T16:33:44;100274.91;;;15.08;37.05
39699;BME280;25372;50.582;12.250;2023-04-30T16:44:06;100268.94;;;14.82;37.54
39699;BME280;25372;50.582;12.250;2023-04-30T16:54:28;100253.41;;;14.29;38.03
39699;BME280;25372;50.582;12.250;2023-04-30T17:04:50;100252.88;;;14.12;38.45
39699;BME280;25372;50.582;12.250;2023-04-30T17:15:11;100251.56;;;14.42;39.08
39699;BME280;25372;50.582;12.250;2023-04-30T17:25:34;100265.84;;;13.52;43.67
39699;BME280;25372;50.582;12.250;2023-04-30T17:35:56;100259.94;;;12.41;43.93
39699;BME280;25372;50.582;12.250;2023-04-30T17:46:19;100277.44;;;11.71;47.24
39699;BME280;25372;50.582;12.250;2023-04-30T17:56:40;100269.00;;;10.76;50.94
39699;BME280;25372;50.582;12.250;2023-04-30T18:07:03;100276.56;;;9.86;56.87
39699;BME280;25372;50.582;12.250;2023-04-30T18:17:26;100292.66;;;9.11;58.89
39699;BME280;25372;50.582;12.250;2023-04-30T18:27:48;100287.56;;;8.53;61.09
39699;BME280;25372;50.582;12.250;2023-04-30T18:38:10;100286.19;;;8.07;65.12
39699;BME280;25372;50.582;12.250;2023-04-30T18:48:31;100296.31;;;7.75;65.77
39699;BME280;25372;50.582;12.250;2023-04-30T18:58:52;100307.41;;;6.99;71.30
39699;BME280;25372;50.582;12.250;2023-04-30T19:09:14;100305.25;;;6.66;72.75
39699;BME280;25372;50.582;12.250;2023-04-30T19:19:36;100310.31;;;6.00;72.55
39699;BME280;25372;50.582;12.250;2023-04-30T19:29:58;100314.31;;;5.62;76.57
39699;BME280;25372;50.582;12.250;2023-04-30T19:40:19;100316.22;;;6.06;76.35
39699;BME280;25372;50.582;12.250;2023-04-30T19:50:42;100314.06;;;5.92;76.56
39699;BME280;25372;50.582;12.250;2023-04-30T20:01:03;100333.63;;;5.03;76.02
39699;BME280;25372;50.582;12.250;2023-04-30T20:11:26;100335.63;;;4.95;76.36
39699;BME280;25372;50.582;12.250;2023-04-30T20:21:47;100326.06;;;4.67;77.76
39699;BME280;25372;50.582;12.250;2023-04-30T20:32:09;100311.59;;;4.58;76.30
39699;BME280;25372;50.582;12.250;2023-04-30T20:42:30;100300.72;;;4.45;77.09
39699;BME280;25372;50.582;12.250;2023-04-30T20:52:52;100310.94;;;4.23;77.14
39699;BME280;25372;50.582;12.250;2023-04-30T21:03:13;100312.66;;;4.53;79.42
39699;BME280;25372;50.582;12.250;2023-04-30T21:13:35;100305.78;;;4.22;78.71
39699;BME280;25372;50.582;12.250;2023-04-30T21:23:56;100305.38;;;4.36;78.37
39699;BME280;25372;50.582;12.250;2023-04-30T21:34:20;100320.44;;;3.94;78.72
39699;BME280;25372;50.582;12.250;2023-04-30T21:44:41;100316.97;;;3.29;79.48
39699;BME280;25372;50.582;12.250;2023-04-30T21:55:05;100308.16;;;3.34;81.78
39699;BME280;25372;50.582;12.250;2023-04-30T22:05:26;100306.91;;;3.49;78.99
39699;BME280;25372;50.582;12.250;2023-04-30T22:15:49;100301.94;;;3.42;80.84
39699;BME280;25372;50.582;12.250;2023-04-30T22:26:10;100286.84;;;3.23;80.50
39699;BME280;25372;50.582;12.250;2023-04-30T22:36:32;100280.47;;;3.02;82.13
39699;BME280;25372;50.582;12.250;2023-04-30T22:46:53;100276.53;;;2.85;81.57
39699;BME280;25372;50.582;12.250;2023-04-30T22:57:17;100270.09;;;3.00;79.60
39699;BME280;25372;50.582;12.250;2023-04-30T23:07:38;100265.53;;;2.75;81.06
39699;BME280;25372;50.582;12.250;2023-04-30T23:18:01;100264.75;;;2.35;82.30
39699;BME280;25372;50.582;12.250;2023-04-30T23:28:23;100259.22;;;2.12;83.07
39699;BME280;25372;50.582;12.250;2023-04-30T23:38:45;100254.78;;;2.15;83.22
39699;BME280;25372;50.582;12.250;2023-04-30T23:49:06;100245.88;;;1.89;84.88
39699;BME280;25372;50.582;12.250;2023-04-30T23:59:29;100233.34;;;1.69;85.17
